sensor_id;sensor_type;location;lat;lon;timestamp;P1;durP1;ratioP1;P2;durP2;ratioP2
2866;SDS011;1441;48.886;8.728;2022-09-06T00:00:38;3.50;;;2.97;;
2866;SDS011;1441;48.886;8.728;2022-09-06T00:03:05;6.40;;;2.73;;
2866;SDS011;1441;48.886;8.728;2022-09-06T00:05:32;2.93;;;2.73;;
2866;SDS011;1441;48.886;8.728;2022-09-06T00:07:59;5.70;;;3.07;;
2866;SDS011;1441;48.886;8.728;2022-09-06T00:10:26;3.47;;;2.60;;
2866;SDS011;1441;48.886;8.728;2022-09-06T00:12:53;3.13;;;2.93;;
2866;SDS011;1441;48.886;8.728;2022-09-06T00:15:18;2.27;;;2.17;;
2866;SDS011;1441;48.886;8.728;2022-09-06T00:17:45;4.23;;;3.40;;
2866;SDS011;1441;48.886;8.728;2022-09-06T00:20:10;3.83;;;3.50;;
2866;SDS011;1441;48.886;8.728;2022-09-06T00:22:36;2.90;;;2.70;;
2866;SDS011;1441;48.886;8.728;2022-09-06T00:25:03;3.47;;;2.73;;
2866;SDS011;1441;48.886;8.728;2022-09-06T00:27:30;3.57;;;3.00;;
2866;SDS011;1441;48.886;8.728;2022-09-06T00:29:56;3.27;;;3.00;;
2866;SDS011;1441;48.886;8.728;2022-09-06T00:32:21;5.00;;;2.93;;
2866;SDS011;1441;48.886;8.728;2022-09-06T00:34:47;4.73;;;3.00;;
2866;SDS011;1441;48.886;8.728;2022-09-06T00:37:13;4.33;;;3.40;;
2866;SDS011;1441;48.886;8.728;2022-09-06T00:39:38;2.70;;;2.50;;
2866;SDS011;1441;48.886;8.728;2022-09-06T00:42:08;3.10;;;2.83;;
2866;SDS011;1441;48.886;8.728;2022-09-06T00:44:34;4.30;;;2.80;;
2866;SDS011;1441;48.886;8.728;2022-09-06T00:47:00;3.70;;;3.33;;
2866;SDS011;1441;48.886;8.728;2022-09-06T00:49:28;7.23;;;2.87;;
2866;SDS011;1441;48.886;8.728;2022-09-06T00:51:59;3.97;;;3.20;;
2866;SDS011;1441;48.886;8.728;2022-09-06T00:54:28;6.77;;;2.97;;
2866;SDS011;1441;48.886;8.728;2022-09-06T00:56:54;3.70;;;2.83;;
2866;SDS011;1441;48.886;8.728;2022-09-06T00:59:23;4.87;;;3.07;;
2866;SDS011;1441;48.886;8.728;2022-09-06T01:01:51;8.77;;;3.10;;
2866;SDS011;1441;48.886;8.728;2022-09-06T01:04:16;5.60;;;3.00;;
2866;SDS011;1441;48.886;8.728;2022-09-06T01:06:45;8.93;;;3.63;;
2866;SDS011;1441;48.886;8.728;2022-09-06T01:20:24;11.90;;;3.10;;
2866;SDS011;1441;48.886;8.728;2022-09-06T01:28:34;3.00;;;2.80;;
2866;SDS011;1441;48.886;8.728;2022-09-06T01:36:39;6.30;;;3.80;;
2866;SDS011;1441;48.886;8.728;2022-09-06T01:39:07;4.90;;;3.53;;
2866;SDS011;1441;48.886;8.728;2022-09-06T01:41:46;12.00;;;4.63;;
2866;SDS011;1441;48.886;8.728;2022-09-06T01:44:12;6.23;;;3.83;;
2866;SDS011;1441;48.886;8.728;2022-09-06T01:46:44;6.20;;;3.33;;
2866;SDS011;1441;48.886;8.728;2022-09-06T01:52:19;9.70;;;3.50;;
2866;SDS011;1441;48.886;8.728;2022-09-06T01:55:04;4.90;;;2.73;;
2866;SDS011;1441;48.886;8.728;2022-09-06T01:57:59;9.20;;;3.10;;
2866;SDS011;1441;48.886;8.728;2022-09-06T02:03:27;4.30;;;3.13;;
2866;SDS011;1441;48.886;8.728;2022-09-06T02:06:07;8.77;;;3.93;;
2866;SDS011;1441;48.886;8.728;2022-09-06T02:08:47;7.00;;;3.70;;
2866;SDS011;1441;48.886;8.728;2022-09-06T02:11:17;9.33;;;3.60;;
2866;SDS011;1441;48.886;8.728;2022-09-06T02:13:44;4.30;;;3.90;;
2866;SDS011;1441;48.886;8.728;2022-09-06T02:16:15;7.47;;;3.70;;
2866;SDS011;1441;48.886;8.728;2022-09-06T02:18:59;7.30;;;3.90;;
2866;SDS011;1441;48.886;8.728;2022-09-06T02:21:32;12.77;;;3.70;;
2866;SDS011;1441;48.886;8.728;2022-09-06T02:24:02;5.77;;;3.20;;
2866;SDS011;1441;48.886;8.728;2022-09-06T02:26:33;4.40;;;3.10;;
2866;SDS011;1441;48.886;8.728;2022-09-06T02:29:02;9.13;;;3.70;;
2866;SDS011;1441;48.886;8.728;2022-09-06T02:31:29;5.57;;;4.00;;
2866;SDS011;1441;48.886;8.728;2022-09-06T02:33:57;11.20;;;3.70;;
2866;SDS011;1441;48.886;8.728;2022-09-06T02:36:24;8.10;;;4.17;;
2866;SDS011;1441;48.886;8.728;2022-09-06T02:38:50;9.83;;;4.30;;
2866;SDS011;1441;48.886;8.728;2022-09-06T02:41:18;5.50;;;3.77;;
2866;SDS011;1441;48.886;8.728;2022-09-06T02:43:46;5.50;;;3.60;;
2866;SDS011;1441;48.886;8.728;2022-09-06T02:46:12;4.37;;;3.97;;
2866;SDS011;1441;48.886;8.728;2022-09-06T02:48:38;6.93;;;4.20;;
2866;SDS011;1441;48.886;8.728;2022-09-06T02:51:04;6.77;;;4.10;;
2866;SDS011;1441;48.886;8.728;2022-09-06T02:53:31;4.97;;;4.27;;
2866;SDS011;1441;48.886;8.728;2022-09-06T02:55:57;7.00;;;4.07;;
2866;SDS011;1441;48.886;8.728;2022-09-06T02:58:23;9.20;;;4.17;;
2866;SDS011;1441;48.886;8.728;2022-09-06T03:00:50;3.87;;;3.57;;
2866;SDS011;1441;48.886;8.728;2022-09-06T03:03:16;4.93;;;3.83;;
2866;SDS011;1441;48.886;8.728;2022-09-06T03:05:45;7.50;;;3.83;;
2866;SDS011;1441;48.886;8.728;2022-09-06T03:08:12;4.40;;;3.70;;
2866;SDS011;1441;48.886;8.728;2022-09-06T03:10:37;6.83;;;3.90;;
2866;SDS011;1441;48.886;8.728;2022-09-06T03:13:03;4.47;;;4.07;;
2866;SDS011;1441;48.886;8.728;2022-09-06T03:15:28;12.60;;;5.30;;
2866;SDS011;1441;48.886;8.728;2022-09-06T03:17:57;5.10;;;4.00;;
2866;SDS011;1441;48.886;8.728;2022-09-06T03:20:23;5.13;;;4.00;;
2866;SDS011;1441;48.886;8.728;2022-09-06T03:22:49;4.47;;;3.93;;
2866;SDS011;1441;48.886;8.728;2022-09-06T03:25:15;8.80;;;4.00;;
2866;SDS011;1441;48.886;8.728;2022-09-06T03:27:41;5.37;;;4.17;;
2866;SDS011;1441;48.886;8.728;2022-09-06T03:30:08;5.13;;;3.90;;
2866;SDS011;1441;48.886;8.728;2022-09-06T03:32:34;8.30;;;4.20;;
2866;SDS011;1441;48.886;8.728;2022-09-06T03:35:00;8.07;;;4.40;;
2866;SDS011;1441;48.886;8.728;2022-09-06T03:37:25;5.03;;;4.53;;
2866;SDS011;1441;48.886;8.728;2022-09-06T03:39:51;6.00;;;4.03;;
2866;SDS011;1441;48.886;8.728;2022-09-06T03:42:17;4.90;;;4.50;;
2866;SDS011;1441;48.886;8.728;2022-09-06T03:44:42;5.10;;;3.77;;
2866;SDS011;1441;48.886;8.728;2022-09-06T03:47:08;7.60;;;3.93;;
2866;SDS011;1441;48.886;8.728;2022-09-06T03:49:34;8.43;;;4.30;;
2866;SDS011;1441;48.886;8.728;2022-09-06T03:51:59;4.87;;;3.73;;
2866;SDS011;1441;48.886;8.728;2022-09-06T03:54:25;5.20;;;3.67;;
2866;SDS011;1441;48.886;8.728;2022-09-06T03:56:52;9.47;;;3.83;;
2866;SDS011;1441;48.886;8.728;2022-09-06T03:59:18;5.07;;;4.00;;
2866;SDS011;1441;48.886;8.728;2022-09-06T04:01:43;9.63;;;3.90;;
2866;SDS011;1441;48.886;8.728;2022-09-06T04:04:09;6.23;;;4.20;;
2866;SDS011;1441;48.886;8.728;2022-09-06T04:06:35;3.93;;;3.60;;
2866;SDS011;1441;48.886;8.728;2022-09-06T04:09:00;6.57;;;4.00;;
2866;SDS011;1441;48.886;8.728;2022-09-06T04:11:26;4.07;;;3.70;;
2866;SDS011;1441;48.886;8.728;2022-09-06T04:13:51;9.37;;;4.40;;
2866;SDS011;1441;48.886;8.728;2022-09-06T04:16:17;5.23;;;4.07;;
2866;SDS011;1441;48.886;8.728;2022-09-06T04:18:43;4.17;;;3.40;;
2866;SDS011;1441;48.886;8.728;2022-09-06T04:21:08;4.60;;;4.00;;
2866;SDS011;1441;48.886;8.728;2022-09-06T04:23:34;6.20;;;4.30;;
2866;SDS011;1441;48.886;8.728;2022-09-06T04:26:00;4.40;;;4.00;;
2866;SDS011;1441;48.886;8.728;2022-09-06T04:28:25;5.63;;;3.97;;
2866;SDS011;1441;48.886;8.728;2022-09-06T04:30:55;7.67;;;4.20;;
2866;SDS011;1441;48.886;8.728;2022-09-06T04:33:25;6.20;;;3.90;;
2866;SDS011;1441;48.886;8.728;2022-09-06T04:35:52;6.17;;;4.30;;
2866;SDS011;1441;48.886;8.728;2022-09-06T04:38:20;8.33;;;4.50;;
2866;SDS011;1441;48.886;8.728;2022-09-06T04:40:46;6.13;;;4.93;;
2866;SDS011;1441;48.886;8.728;2022-09-06T04:43:12;5.60;;;3.80;;
2866;SDS011;1441;48.886;8.728;2022-09-06T04:45:37;3.07;;;2.87;;
2866;SDS011;1441;48.886;8.728;2022-09-06T04:48:03;4.63;;;4.23;;
2866;SDS011;1441;48.886;8.728;2022-09-06T04:50:29;7.70;;;4.30;;
2866;SDS011;1441;48.886;8.728;2022-09-06T04:52:54;5.93;;;3.80;;
2866;SDS011;1441;48.886;8.728;2022-09-06T04:55:20;11.90;;;3.57;;
2866;SDS011;1441;48.886;8.728;2022-09-06T04:57:45;7.90;;;4.30;;
2866;SDS011;1441;48.886;8.728;2022-09-06T05:00:11;8.80;;;4.30;;
2866;SDS011;1441;48.886;8.728;2022-09-06T05:02:37;7.10;;;3.60;;
2866;SDS011;1441;48.886;8.728;2022-09-06T05:05:03;3.73;;;3.33;;
2866;SDS011;1441;48.886;8.728;2022-09-06T05:07:29;6.73;;;4.30;;
2866;SDS011;1441;48.886;8.728;2022-09-06T05:09:54;4.37;;;3.40;;
2866;SDS011;1441;48.886;8.728;2022-09-06T05:12:20;5.10;;;4.00;;
2866;SDS011;1441;48.886;8.728;2022-09-06T05:14:46;3.83;;;3.53;;
2866;SDS011;1441;48.886;8.728;2022-09-06T05:17:12;3.63;;;3.33;;
2866;SDS011;1441;48.886;8.728;2022-09-06T05:19:38;3.30;;;3.10;;
2866;SDS011;1441;48.886;8.728;2022-09-06T05:22:04;4.67;;;4.00;;
2866;SDS011;1441;48.886;8.728;2022-09-06T05:24:30;5.30;;;3.57;;
2866;SDS011;1441;48.886;8.728;2022-09-06T05:26:56;4.07;;;3.67;;
2866;SDS011;1441;48.886;8.728;2022-09-06T05:29:22;4.17;;;3.80;;
2866;SDS011;1441;48.886;8.728;2022-09-06T05:31:48;3.90;;;3.70;;
2866;SDS011;1441;48.886;8.728;2022-09-06T05:34:14;5.10;;;3.00;;
2866;SDS011;1441;48.886;8.728;2022-09-06T05:36:40;4.13;;;3.30;;
2866;SDS011;1441;48.886;8.728;2022-09-06T05:39:06;5.67;;;3.20;;
2866;SDS011;1441;48.886;8.728;2022-09-06T05:41:32;5.50;;;3.47;;
2866;SDS011;1441;48.886;8.728;2022-09-06T05:43:57;3.13;;;2.83;;
2866;SDS011;1441;48.886;8.728;2022-09-06T05:46:24;3.73;;;3.20;;
2866;SDS011;1441;48.886;8.728;2022-09-06T05:48:54;4.63;;;3.50;;
2866;SDS011;1441;48.886;8.728;2022-09-06T05:51:21;3.20;;;2.90;;
2866;SDS011;1441;48.886;8.728;2022-09-06T05:53:48;6.03;;;3.20;;
2866;SDS011;1441;48.886;8.728;2022-09-06T05:56:14;4.63;;;4.03;;
2866;SDS011;1441;48.886;8.728;2022-09-06T05:58:41;10.03;;;4.50;;
2866;SDS011;1441;48.886;8.728;2022-09-06T06:01:12;4.80;;;4.30;;
2866;SDS011;1441;48.886;8.728;2022-09-06T06:03:40;5.20;;;4.57;;
2866;SDS011;1441;48.886;8.728;2022-09-06T06:06:07;10.83;;;4.10;;
2866;SDS011;1441;48.886;8.728;2022-09-06T06:08:33;4.00;;;3.70;;
2866;SDS011;1441;48.886;8.728;2022-09-06T06:11:00;6.43;;;4.77;;
2866;SDS011;1441;48.886;8.728;2022-09-06T06:13:26;9.83;;;5.30;;
2866;SDS011;1441;48.886;8.728;2022-09-06T06:15:53;7.20;;;4.10;;
2866;SDS011;1441;48.886;8.728;2022-09-06T06:18:19;4.50;;;4.10;;
2866;SDS011;1441;48.886;8.728;2022-09-06T06:20:45;4.60;;;3.90;;
2866;SDS011;1441;48.886;8.728;2022-09-06T06:23:12;6.03;;;4.90;;
2866;SDS011;1441;48.886;8.728;2022-09-06T06:25:39;14.23;;;5.07;;
2866;SDS011;1441;48.886;8.728;2022-09-06T06:28:04;4.30;;;3.90;;
2866;SDS011;1441;48.886;8.728;2022-09-06T06:30:30;8.27;;;4.30;;
2866;SDS011;1441;48.886;8.728;2022-09-06T06:32:55;6.03;;;3.87;;
2866;SDS011;1441;48.886;8.728;2022-09-06T06:35:23;5.63;;;4.30;;
2866;SDS011;1441;48.886;8.728;2022-09-06T06:37:49;5.30;;;3.73;;
2866;SDS011;1441;48.886;8.728;2022-09-06T06:40:14;4.97;;;4.00;;
2866;SDS011;1441;48.886;8.728;2022-09-06T06:42:40;5.57;;;4.20;;
2866;SDS011;1441;48.886;8.728;2022-09-06T06:45:06;9.10;;;4.30;;
2866;SDS011;1441;48.886;8.728;2022-09-06T06:47:32;4.63;;;4.20;;
2866;SDS011;1441;48.886;8.728;2022-09-06T06:49:58;4.23;;;3.63;;
2866;SDS011;1441;48.886;8.728;2022-09-06T06:52:23;5.43;;;3.60;;
2866;SDS011;1441;48.886;8.728;2022-09-06T06:54:49;4.10;;;3.70;;
2866;SDS011;1441;48.886;8.728;2022-09-06T06:57:15;6.37;;;2.97;;
2866;SDS011;1441;48.886;8.728;2022-09-06T06:59:41;8.17;;;3.53;;
2866;SDS011;1441;48.886;8.728;2022-09-06T07:02:07;3.70;;;3.10;;
2866;SDS011;1441;48.886;8.728;2022-09-06T07:04:32;3.40;;;3.07;;
2866;SDS011;1441;48.886;8.728;2022-09-06T07:06:58;3.93;;;3.50;;
2866;SDS011;1441;48.886;8.728;2022-09-06T07:09:24;5.60;;;3.73;;
2866;SDS011;1441;48.886;8.728;2022-09-06T07:11:49;5.83;;;3.70;;
2866;SDS011;1441;48.886;8.728;2022-09-06T07:14:15;6.83;;;3.33;;
2866;SDS011;1441;48.886;8.728;2022-09-06T07:16:42;6.97;;;2.83;;
2866;SDS011;1441;48.886;8.728;2022-09-06T07:19:08;3.20;;;2.90;;
2866;SDS011;1441;48.886;8.728;2022-09-06T07:21:33;3.00;;;2.80;;
2866;SDS011;1441;48.886;8.728;2022-09-06T07:23:59;4.73;;;3.03;;
2866;SDS011;1441;48.886;8.728;2022-09-06T07:26:26;4.57;;;2.97;;
2866;SDS011;1441;48.886;8.728;2022-09-06T07:28:57;2.87;;;2.67;;
2866;SDS011;1441;48.886;8.728;2022-09-06T07:31:24;5.30;;;2.30;;
2866;SDS011;1441;48.886;8.728;2022-09-06T07:33:51;2.33;;;2.20;;
2866;SDS011;1441;48.886;8.728;2022-09-06T07:36:17;2.33;;;2.13;;
2866;SDS011;1441;48.886;8.728;2022-09-06T07:38:46;2.40;;;2.20;;
2866;SDS011;1441;48.886;8.728;2022-09-06T07:41:13;7.60;;;2.97;;
2866;SDS011;1441;48.886;8.728;2022-09-06T07:43:41;3.40;;;2.23;;
2866;SDS011;1441;48.886;8.728;2022-09-06T07:46:08;2.50;;;2.30;;
2866;SDS011;1441;48.886;8.728;2022-09-06T07:48:36;3.07;;;2.40;;
2866;SDS011;1441;48.886;8.728;2022-09-06T07:51:06;4.13;;;2.80;;
2866;SDS011;1441;48.886;8.728;2022-09-06T07:53:42;4.67;;;2.80;;
2866;SDS011;1441;48.886;8.728;2022-09-06T07:56:12;2.13;;;2.03;;
2866;SDS011;1441;48.886;8.728;2022-09-06T07:58:38;4.40;;;2.47;;
2866;SDS011;1441;48.886;8.728;2022-09-06T08:03:59;1.87;;;1.70;;
2866;SDS011;1441;48.886;8.728;2022-09-06T08:06:27;2.97;;;2.63;;
2866;SDS011;1441;48.886;8.728;2022-09-06T08:08:54;1.90;;;1.80;;
2866;SDS011;1441;48.886;8.728;2022-09-06T08:11:21;4.43;;;1.40;;
2866;SDS011;1441;48.886;8.728;2022-09-06T08:13:48;4.50;;;3.23;;
2866;SDS011;1441;48.886;8.728;2022-09-06T08:16:15;3.63;;;3.33;;
2866;SDS011;1441;48.886;8.728;2022-09-06T08:18:41;6.38;;;4.22;;
2866;SDS011;1441;48.886;8.728;2022-09-06T08:21:11;4.22;;;3.92;;
2866;SDS011;1441;48.886;8.728;2022-09-06T08:23:38;7.50;;;3.22;;
2866;SDS011;1441;48.886;8.728;2022-09-06T08:26:08;5.50;;;3.30;;
2866;SDS011;1441;48.886;8.728;2022-09-06T08:28:34;3.42;;;3.05;;
2866;SDS011;1441;48.886;8.728;2022-09-06T08:31:15;7.38;;;4.10;;
2866;SDS011;1441;48.886;8.728;2022-09-06T08:33:41;2.93;;;2.50;;
2866;SDS011;1441;48.886;8.728;2022-09-06T08:36:08;3.47;;;3.17;;
2866;SDS011;1441;48.886;8.728;2022-09-06T08:38:35;3.60;;;3.00;;
2866;SDS011;1441;48.886;8.728;2022-09-06T08:41:05;4.47;;;3.43;;
2866;SDS011;1441;48.886;8.728;2022-09-06T08:43:32;14.07;;;3.40;;
2866;SDS011;1441;48.886;8.728;2022-09-06T08:45:57;7.73;;;3.10;;
2866;SDS011;1441;48.886;8.728;2022-09-06T08:48:23;8.83;;;3.37;;
2866;SDS011;1441;48.886;8.728;2022-09-06T08:51:13;5.93;;;3.43;;
2866;SDS011;1441;48.886;8.728;2022-09-06T08:53:45;5.40;;;3.50;;
2866;SDS011;1441;48.886;8.728;2022-09-06T08:56:15;7.33;;;4.60;;
2866;SDS011;1441;48.886;8.728;2022-09-06T09:01:40;9.17;;;3.83;;
2866;SDS011;1441;48.886;8.728;2022-09-06T09:04:14;5.30;;;3.20;;
2866;SDS011;1441;48.886;8.728;2022-09-06T09:06:44;3.90;;;3.60;;
2866;SDS011;1441;48.886;8.728;2022-09-06T09:09:16;4.13;;;3.50;;
2866;SDS011;1441;48.886;8.728;2022-09-06T09:11:42;4.10;;;3.60;;
2866;SDS011;1441;48.886;8.728;2022-09-06T09:16:42;4.40;;;3.90;;
2866;SDS011;1441;48.886;8.728;2022-09-06T09:19:07;3.30;;;3.10;;
2866;SDS011;1441;48.886;8.728;2022-09-06T09:21:35;6.10;;;3.23;;
2866;SDS011;1441;48.886;8.728;2022-09-06T09:24:04;2.30;;;2.20;;
2866;SDS011;1441;48.886;8.728;2022-09-06T09:26:34;3.67;;;3.00;;
2866;SDS011;1441;48.886;8.728;2022-09-06T09:29:10;2.63;;;2.40;;
2866;SDS011;1441;48.886;8.728;2022-09-06T09:31:41;2.40;;;2.20;;
2866;SDS011;1441;48.886;8.728;2022-09-06T09:34:34;4.20;;;2.77;;
2866;SDS011;1441;48.886;8.728;2022-09-06T09:39:48;4.80;;;2.53;;
2866;SDS011;1441;48.886;8.728;2022-09-06T09:42:36;9.40;;;2.47;;
2866;SDS011;1441;48.886;8.728;2022-09-06T09:45:02;4.50;;;2.60;;
2866;SDS011;1441;48.886;8.728;2022-09-06T09:47:49;4.40;;;2.20;;
2866;SDS011;1441;48.886;8.728;2022-09-06T09:52:49;2.97;;;2.33;;
2866;SDS011;1441;48.886;8.728;2022-09-06T09:55:15;6.40;;;2.47;;
2866;SDS011;1441;48.886;8.728;2022-09-06T09:57:46;6.93;;;2.10;;
2866;SDS011;1441;48.886;8.728;2022-09-06T10:00:14;4.70;;;2.60;;
2866;SDS011;1441;48.886;8.728;2022-09-06T10:03:18;4.87;;;2.00;;
2866;SDS011;1441;48.886;8.728;2022-09-06T10:05:57;4.53;;;2.20;;
2866;SDS011;1441;48.886;8.728;2022-09-06T10:08:26;4.93;;;2.63;;
2866;SDS011;1441;48.886;8.728;2022-09-06T10:10:56;4.97;;;2.50;;
2866;SDS011;1441;48.886;8.728;2022-09-06T10:13:23;4.73;;;2.43;;
2866;SDS011;1441;48.886;8.728;2022-09-06T10:15:51;3.87;;;1.70;;
2866;SDS011;1441;48.886;8.728;2022-09-06T10:18:31;3.07;;;2.07;;
2866;SDS011;1441;48.886;8.728;2022-09-06T10:21:14;3.50;;;2.00;;
2866;SDS011;1441;48.886;8.728;2022-09-06T10:26:52;9.27;;;1.93;;
2866;SDS011;1441;48.886;8.728;2022-09-06T10:29:44;4.27;;;2.10;;
2866;SDS011;1441;48.886;8.728;2022-09-06T10:32:54;5.63;;;1.80;;
2866;SDS011;1441;48.886;8.728;2022-09-06T10:37:51;3.57;;;1.60;;
2866;SDS011;1441;48.886;8.728;2022-09-06T10:40:36;3.93;;;1.87;;
2866;SDS011;1441;48.886;8.728;2022-09-06T10:43:12;5.33;;;2.03;;
2866;SDS011;1441;48.886;8.728;2022-09-06T10:45:56;9.77;;;2.27;;
2866;SDS011;1441;48.886;8.728;2022-09-06T10:50:53;3.83;;;2.13;;
2866;SDS011;1441;48.886;8.728;2022-09-06T10:56:06;6.80;;;2.47;;
2866;SDS011;1441;48.886;8.728;2022-09-06T10:59:15;7.67;;;2.60;;
2866;SDS011;1441;48.886;8.728;2022-09-06T11:04:22;2.40;;;2.07;;
2866;SDS011;1441;48.886;8.728;2022-09-06T11:07:15;4.87;;;2.80;;
2866;SDS011;1441;48.886;8.728;2022-09-06T11:10:00;7.60;;;2.70;;
2866;SDS011;1441;48.886;8.728;2022-09-06T11:12:52;3.03;;;2.30;;
2866;SDS011;1441;48.886;8.728;2022-09-06T11:15:24;4.40;;;2.67;;
2866;SDS011;1441;48.886;8.728;2022-09-06T11:18:04;8.93;;;3.13;;
2866;SDS011;1441;48.886;8.728;2022-09-06T11:21:20;5.10;;;2.77;;
2866;SDS011;1441;48.886;8.728;2022-09-06T11:26:51;3.87;;;2.27;;
2866;SDS011;1441;48.886;8.728;2022-09-06T11:29:49;3.63;;;2.37;;
2866;SDS011;1441;48.886;8.728;2022-09-06T11:32:39;8.47;;;3.27;;
2866;SDS011;1441;48.886;8.728;2022-09-06T11:35:09;8.73;;;2.30;;
2866;SDS011;1441;48.886;8.728;2022-09-06T11:40:40;7.27;;;2.40;;
2866;SDS011;1441;48.886;8.728;2022-09-06T11:49:04;7.83;;;2.87;;
2866;SDS011;1441;48.886;8.728;2022-09-06T11:51:34;5.20;;;2.00;;
2866;SDS011;1441;48.886;8.728;2022-09-06T11:54:04;9.33;;;2.30;;
2866;SDS011;1441;48.886;8.728;2022-09-06T11:56:57;5.17;;;2.10;;
2866;SDS011;1441;48.886;8.728;2022-09-06T12:02:54;5.67;;;2.17;;
2866;SDS011;1441;48.886;8.728;2022-09-06T12:07:36;2.20;;;1.80;;
2866;SDS011;1441;48.886;8.728;2022-09-06T12:12:54;5.10;;;2.53;;
2866;SDS011;1441;48.886;8.728;2022-09-06T12:15:27;6.20;;;2.20;;
2866;SDS011;1441;48.886;8.728;2022-09-06T12:18:07;7.17;;;2.47;;
2866;SDS011;1441;48.886;8.728;2022-09-06T12:28:35;5.10;;;2.20;;
2866;SDS011;1441;48.886;8.728;2022-09-06T12:33:58;7.37;;;2.20;;
2866;SDS011;1441;48.886;8.728;2022-09-06T12:36:32;6.23;;;2.27;;
2866;SDS011;1441;48.886;8.728;2022-09-06T12:38:58;2.20;;;1.77;;
2866;SDS011;1441;48.886;8.728;2022-09-06T12:41:46;5.47;;;2.23;;
2866;SDS011;1441;48.886;8.728;2022-09-06T12:44:31;4.67;;;2.07;;
2866;SDS011;1441;48.886;8.728;2022-09-06T12:47:10;6.30;;;2.30;;
2866;SDS011;1441;48.886;8.728;2022-09-06T12:49:39;5.30;;;2.50;;
2866;SDS011;1441;48.886;8.728;2022-09-06T12:52:06;9.47;;;2.37;;
2866;SDS011;1441;48.886;8.728;2022-09-06T12:54:40;1.70;;;1.60;;
2866;SDS011;1441;48.886;8.728;2022-09-06T12:57:16;3.33;;;2.30;;
2866;SDS011;1441;48.886;8.728;2022-09-06T12:59:47;3.40;;;2.27;;
2866;SDS011;1441;48.886;8.728;2022-09-06T13:02:15;2.60;;;2.40;;
2866;SDS011;1441;48.886;8.728;2022-09-06T13:07:14;6.10;;;2.27;;
2866;SDS011;1441;48.886;8.728;2022-09-06T13:09:44;5.00;;;2.33;;
2866;SDS011;1441;48.886;8.728;2022-09-06T13:14:53;3.17;;;1.53;;
2866;SDS011;1441;48.886;8.728;2022-09-06T13:17:22;3.87;;;2.23;;
2866;SDS011;1441;48.886;8.728;2022-09-06T13:19:53;10.10;;;3.20;;
2866;SDS011;1441;48.886;8.728;2022-09-06T13:25:12;4.13;;;2.30;;
2866;SDS011;1441;48.886;8.728;2022-09-06T13:27:55;4.57;;;2.27;;
2866;SDS011;1441;48.886;8.728;2022-09-06T13:30:35;11.00;;;2.23;;
2866;SDS011;1441;48.886;8.728;2022-09-06T13:33:23;2.40;;;2.10;;
2866;SDS011;1441;48.886;8.728;2022-09-06T13:35:51;2.00;;;1.73;;
2866;SDS011;1441;48.886;8.728;2022-09-06T13:41:06;3.93;;;1.90;;
2866;SDS011;1441;48.886;8.728;2022-09-06T13:43:58;7.60;;;1.90;;
2866;SDS011;1441;48.886;8.728;2022-09-06T13:46:24;5.83;;;1.50;;
2866;SDS011;1441;48.886;8.728;2022-09-06T13:48:54;2.40;;;1.33;;
2866;SDS011;1441;48.886;8.728;2022-09-06T13:51:20;6.83;;;2.23;;
2866;SDS011;1441;48.886;8.728;2022-09-06T13:53:45;3.33;;;1.73;;
2866;SDS011;1441;48.886;8.728;2022-09-06T13:56:12;2.77;;;1.83;;
2866;SDS011;1441;48.886;8.728;2022-09-06T13:58:37;2.13;;;1.80;;
2866;SDS011;1441;48.886;8.728;2022-09-06T14:01:03;4.80;;;2.40;;
2866;SDS011;1441;48.886;8.728;2022-09-06T14:03:33;9.27;;;2.70;;
2866;SDS011;1441;48.886;8.728;2022-09-06T14:06:00;7.90;;;2.80;;
2866;SDS011;1441;48.886;8.728;2022-09-06T14:08:26;7.73;;;2.60;;
2866;SDS011;1441;48.886;8.728;2022-09-06T14:10:52;6.53;;;2.70;;
2866;SDS011;1441;48.886;8.728;2022-09-06T14:13:18;7.90;;;3.50;;
2866;SDS011;1441;48.886;8.728;2022-09-06T14:15:45;19.37;;;3.57;;
2866;SDS011;1441;48.886;8.728;2022-09-06T14:18:12;4.67;;;2.90;;
2866;SDS011;1441;48.886;8.728;2022-09-06T14:20:38;10.97;;;2.50;;
2866;SDS011;1441;48.886;8.728;2022-09-06T14:23:04;4.10;;;2.67;;
2866;SDS011;1441;48.886;8.728;2022-09-06T14:25:33;3.00;;;2.30;;
2866;SDS011;1441;48.886;8.728;2022-09-06T14:28:00;3.63;;;2.53;;
2866;SDS011;1441;48.886;8.728;2022-09-06T14:30:26;6.13;;;2.50;;
2866;SDS011;1441;48.886;8.728;2022-09-06T14:32:52;7.67;;;2.83;;
2866;SDS011;1441;48.886;8.728;2022-09-06T14:35:18;5.60;;;2.70;;
2866;SDS011;1441;48.886;8.728;2022-09-06T14:37:43;9.00;;;2.50;;
2866;SDS011;1441;48.886;8.728;2022-09-06T14:40:09;5.33;;;2.93;;
2866;SDS011;1441;48.886;8.728;2022-09-06T14:42:35;7.27;;;3.17;;
2866;SDS011;1441;48.886;8.728;2022-09-06T14:45:00;4.50;;;2.43;;
2866;SDS011;1441;48.886;8.728;2022-09-06T14:47:26;6.10;;;2.60;;
2866;SDS011;1441;48.886;8.728;2022-09-06T14:49:51;7.67;;;2.93;;
2866;SDS011;1441;48.886;8.728;2022-09-06T14:52:17;4.30;;;2.53;;
2866;SDS011;1441;48.886;8.728;2022-09-06T14:54:43;7.77;;;3.13;;
2866;SDS011;1441;48.886;8.728;2022-09-06T14:57:09;5.40;;;2.93;;
2866;SDS011;1441;48.886;8.728;2022-09-06T14:59:35;6.67;;;2.70;;
2866;SDS011;1441;48.886;8.728;2022-09-06T15:02:00;7.40;;;3.30;;
2866;SDS011;1441;48.886;8.728;2022-09-06T15:04:26;5.33;;;2.40;;
2866;SDS011;1441;48.886;8.728;2022-09-06T15:06:52;5.20;;;2.23;;
2866;SDS011;1441;48.886;8.728;2022-09-06T15:09:17;6.73;;;2.63;;
2866;SDS011;1441;48.886;8.728;2022-09-06T15:11:44;5.90;;;2.10;;
2866;SDS011;1441;48.886;8.728;2022-09-06T15:14:25;1.60;;;1.33;;
2866;SDS011;1441;48.886;8.728;2022-09-06T15:16:53;3.00;;;1.97;;
2866;SDS011;1441;48.886;8.728;2022-09-06T15:19:28;4.83;;;1.43;;
2866;SDS011;1441;48.886;8.728;2022-09-06T15:21:54;2.30;;;1.40;;
2866;SDS011;1441;48.886;8.728;2022-09-06T15:24:21;3.33;;;2.07;;
2866;SDS011;1441;48.886;8.728;2022-09-06T15:26:49;4.80;;;2.00;;
2866;SDS011;1441;48.886;8.728;2022-09-06T15:29:15;7.80;;;1.90;;
2866;SDS011;1441;48.886;8.728;2022-09-06T15:31:44;2.13;;;1.90;;
2866;SDS011;1441;48.886;8.728;2022-09-06T15:34:14;1.60;;;1.50;;
2866;SDS011;1441;48.886;8.728;2022-09-06T15:36:41;3.40;;;1.50;;
2866;SDS011;1441;48.886;8.728;2022-09-06T15:39:07;4.97;;;2.80;;
2866;SDS011;1441;48.886;8.728;2022-09-06T15:41:34;2.90;;;1.30;;
2866;SDS011;1441;48.886;8.728;2022-09-06T15:44:01;2.10;;;1.30;;
2866;SDS011;1441;48.886;8.728;2022-09-06T15:49:07;2.23;;;1.60;;
2866;SDS011;1441;48.886;8.728;2022-09-06T15:51:35;4.20;;;1.50;;
2866;SDS011;1441;48.886;8.728;2022-09-06T15:54:02;1.50;;;1.40;;
2866;SDS011;1441;48.886;8.728;2022-09-06T15:56:29;5.20;;;1.90;;
2866;SDS011;1441;48.886;8.728;2022-09-06T15:58:54;2.17;;;2.07;;
2866;SDS011;1441;48.886;8.728;2022-09-06T16:01:21;1.63;;;1.53;;
2866;SDS011;1441;48.886;8.728;2022-09-06T16:03:49;4.20;;;1.80;;
2866;SDS011;1441;48.886;8.728;2022-09-06T16:06:20;2.57;;;1.77;;
2866;SDS011;1441;48.886;8.728;2022-09-06T16:08:47;3.13;;;1.93;;
2866;SDS011;1441;48.886;8.728;2022-09-06T16:11:14;3.23;;;2.13;;
2866;SDS011;1441;48.886;8.728;2022-09-06T16:13:41;2.83;;;2.20;;
2866;SDS011;1441;48.886;8.728;2022-09-06T16:16:09;5.80;;;2.17;;
2866;SDS011;1441;48.886;8.728;2022-09-06T16:18:40;3.10;;;1.60;;
2866;SDS011;1441;48.886;8.728;2022-09-06T16:21:08;2.53;;;1.87;;
2866;SDS011;1441;48.886;8.728;2022-09-06T16:23:36;2.57;;;2.00;;
2866;SDS011;1441;48.886;8.728;2022-09-06T16:26:03;3.30;;;2.13;;
2866;SDS011;1441;48.886;8.728;2022-09-06T16:28:31;3.70;;;1.80;;
2866;SDS011;1441;48.886;8.728;2022-09-06T16:31:02;2.93;;;2.03;;
2866;SDS011;1441;48.886;8.728;2022-09-06T16:33:30;10.77;;;2.50;;
2866;SDS011;1441;48.886;8.728;2022-09-06T16:35:58;4.80;;;2.10;;
2866;SDS011;1441;48.886;8.728;2022-09-06T16:38:28;9.40;;;2.23;;
2866;SDS011;1441;48.886;8.728;2022-09-06T16:40:57;4.43;;;1.87;;
2866;SDS011;1441;48.886;8.728;2022-09-06T16:43:25;2.97;;;2.27;;
2866;SDS011;1441;48.886;8.728;2022-09-06T16:45:54;5.60;;;1.70;;
2866;SDS011;1441;48.886;8.728;2022-09-06T16:48:24;5.37;;;1.87;;
2866;SDS011;1441;48.886;8.728;2022-09-06T16:50:51;3.07;;;2.23;;
2866;SDS011;1441;48.886;8.728;2022-09-06T16:53:17;2.73;;;2.20;;
2866;SDS011;1441;48.886;8.728;2022-09-06T16:55:43;2.47;;;2.10;;
2866;SDS011;1441;48.886;8.728;2022-09-06T16:58:09;2.27;;;2.00;;
2866;SDS011;1441;48.886;8.728;2022-09-06T17:00:38;5.57;;;2.77;;
2866;SDS011;1441;48.886;8.728;2022-09-06T17:03:05;4.27;;;2.30;;
2866;SDS011;1441;48.886;8.728;2022-09-06T17:05:32;2.30;;;2.10;;
2866;SDS011;1441;48.886;8.728;2022-09-06T17:07:59;2.67;;;1.70;;